createdAt,value
2023-01-17T00:02:20.224Z,70.33
2023-01-17T00:18:34.558Z,70.32
2023-01-17T00:21:20.290Z,69.61
2023-01-17T00:24:06.032Z,69.61
2023-01-17T00:26:32.983Z,69.56
2023-01-17T00:28:59.607Z,69.69
2023-01-17T00:31:27.434Z,69.88
2023-01-17T00:33:54.130Z,69.96
2023-01-17T00:36:20.754Z,70.16
2023-01-17T00:38:47.423Z,70.32
2023-01-17T00:41:14.420Z,70.47
2023-01-17T00:44:00.184Z,70.41
2023-01-17T00:46:45.561Z,70.33
2023-01-17T00:49:31.033Z,70.40
2023-01-17T00:52:16.536Z,70.49
2023-01-17T00:55:02.053Z,70.57
2023-01-17T00:57:48.635Z,70.63
2023-01-17T01:00:36.544Z,70.77
2023-01-17T01:03:27.377Z,70.86
2023-01-17T01:06:12.870Z,70.73
2023-01-17T01:08:58.325Z,70.62
2023-01-17T01:11:44.017Z,70.69
2023-01-17T01:14:29.516Z,70.85
2023-01-17T01:17:14.927Z,70.79
2023-01-17T01:20:00.506Z,70.83
2023-01-17T01:22:46.774Z,70.77
2023-01-17T01:25:32.497Z,70.91
2023-01-17T01:28:22.722Z,70.95
2023-01-17T01:31:08.372Z,70.78
2023-01-17T01:33:35.325Z,70.73
2023-01-17T01:36:02.032Z,70.78
2023-01-17T01:38:29.326Z,70.72
2023-01-17T01:40:56.192Z,70.68
2023-01-17T01:43:46.856Z,70.75
2023-01-17T01:46:16.315Z,70.73
2023-01-17T01:48:55.160Z,70.80
2023-01-17T01:51:25.659Z,71.05
2023-01-17T01:53:59.035Z,71.07
2023-01-17T01:56:25.950Z,71.11
2023-01-17T01:58:52.736Z,71.09
2023-01-17T02:01:19.572Z,71.25
2023-01-17T02:03:46.418Z,71.24
2023-01-17T02:06:30.175Z,71.33
2023-01-17T02:09:02.956Z,71.16
2023-01-17T02:11:29.927Z,71.04
2023-01-17T02:13:56.791Z,70.99
2023-01-17T02:16:54.527Z,71.13
2023-01-17T02:19:46.190Z,71.33
2023-01-17T02:22:40.744Z,71.47
2023-01-17T02:25:30.915Z,71.61
2023-01-17T02:28:09.074Z,71.66
2023-01-17T02:30:46.167Z,71.76
2023-01-17T02:33:22.107Z,72.05
2023-01-17T02:36:13.714Z,72.23
2023-01-17T02:38:49.078Z,72.43
2023-01-17T02:41:20.862Z,72.57
2023-01-17T02:43:49.034Z,72.86
2023-01-17T02:46:15.845Z,72.82
2023-01-17T02:48:42.876Z,72.87
2023-01-17T02:51:31.518Z,72.82
2023-01-17T02:54:22.951Z,72.97
2023-01-17T02:56:58.917Z,73.20
2023-01-17T02:59:42.714Z,73.26
2023-01-17T03:02:16.917Z,73.42
2023-01-17T03:04:48.366Z,73.41
2023-01-17T03:07:18.125Z,73.37
2023-01-17T03:09:45.373Z,73.32
2023-01-17T03:12:12.556Z,73.48
2023-01-17T03:14:39.389Z,73.59
2023-01-17T03:17:06.590Z,73.70
2023-01-17T03:19:33.552Z,73.73
2023-01-17T03:22:00.942Z,73.70
2023-01-17T03:24:27.646Z,73.61
2023-01-17T03:26:54.427Z,73.52
2023-01-17T03:29:21.291Z,73.59
2023-01-17T03:31:48.193Z,73.78
2023-01-17T03:34:14.933Z,73.81
2023-01-17T03:36:41.925Z,73.88
2023-01-17T03:39:08.788Z,73.80
2023-01-17T03:41:35.490Z,73.60
2023-01-17T03:44:03.533Z,73.60
2023-01-17T03:46:30.420Z,73.65
2023-01-17T03:48:57.376Z,73.63
2023-01-17T03:51:24.382Z,73.60
2023-01-17T03:53:51.394Z,73.58
2023-01-17T03:56:20.035Z,73.52
2023-01-17T04:24:58.973Z,70.87
2023-01-17T04:27:25.940Z,69.65
2023-01-17T04:29:52.915Z,69.75
2023-01-17T04:32:19.843Z,69.82
2023-01-17T04:34:46.753Z,69.92
2023-01-17T04:37:13.563Z,70.07
2023-01-17T04:39:40.631Z,70.32
2023-01-17T04:42:07.630Z,70.62
2023-01-17T04:44:34.577Z,70.71
2023-01-17T04:47:03.138Z,70.90
2023-01-17T04:49:30.119Z,70.91
2023-01-17T04:51:57.113Z,70.82
2023-01-17T04:54:24.051Z,70.93
2023-01-17T04:56:50.858Z,71.03
2023-01-17T04:59:17.842Z,71.18
2023-01-17T05:01:44.799Z,71.29
2023-01-17T05:04:11.649Z,71.44
2023-01-17T05:06:38.732Z,71.56
2023-01-17T05:09:06.956Z,71.59
2023-01-17T05:11:34.149Z,71.81
2023-01-17T05:14:01.006Z,71.93
2023-01-17T05:16:27.933Z,72.17
2023-01-17T05:18:54.879Z,72.25
2023-01-17T05:21:21.848Z,72.23
2023-01-17T05:23:48.727Z,72.28
2023-01-17T05:26:15.611Z,72.29
2023-01-17T05:28:42.586Z,72.38
2023-01-17T05:31:09.520Z,72.59
2023-01-17T05:33:36.583Z,72.66
2023-01-17T05:36:03.959Z,72.71
2023-01-17T05:38:30.919Z,72.72
2023-01-17T05:41:02.638Z,72.58
2023-01-17T05:43:29.483Z,72.57
2023-01-17T05:45:56.482Z,72.66
2023-01-17T05:48:23.321Z,72.80
2023-01-17T05:50:50.183Z,72.89
2023-01-17T05:53:17.231Z,73.05
2023-01-17T05:55:44.152Z,73.14
2023-01-17T05:58:16.468Z,73.14
2023-01-17T06:00:43.309Z,73.06
2023-01-17T06:03:10.560Z,73.07
2023-01-17T06:05:37.696Z,73.15
2023-01-17T06:08:05.018Z,73.26
2023-01-17T06:10:32.007Z,73.23
2023-01-17T06:13:10.572Z,73.20
2023-01-17T06:15:37.599Z,73.11
2023-01-17T06:18:08.798Z,73.00
2023-01-17T06:20:35.865Z,73.00
2023-01-17T06:23:04.560Z,73.03
2023-01-17T06:25:44.999Z,73.09
2023-01-17T06:28:13.013Z,73.08
2023-01-17T06:30:39.928Z,73.11
2023-01-17T06:33:06.822Z,73.04
2023-01-17T06:35:33.747Z,72.92
2023-01-17T06:38:00.708Z,73.11
2023-01-17T06:40:28.331Z,73.17
2023-01-17T06:42:58.281Z,73.19
2023-01-17T06:45:25.155Z,73.28
2023-01-17T06:47:52.194Z,73.03
2023-01-17T06:50:19.271Z,73.03
2023-01-17T06:52:54.294Z,72.94
2023-01-17T06:55:21.189Z,73.01
2023-01-17T06:57:48.830Z,72.99
2023-01-17T07:00:16.684Z,72.94
2023-01-17T07:02:47.871Z,72.75
2023-01-17T07:05:16.513Z,72.62
2023-01-17T07:07:44.668Z,72.53
2023-01-17T07:10:12.770Z,72.51
2023-01-17T07:12:39.604Z,72.57
2023-01-17T07:15:07.415Z,72.56
2023-01-17T07:17:34.581Z,72.41
2023-01-17T07:20:01.625Z,72.45
2023-01-17T07:22:28.513Z,72.33
2023-01-17T07:24:58.852Z,72.31
2023-01-17T07:27:27.895Z,72.29
2023-01-17T07:29:54.777Z,72.28
2023-01-17T07:32:21.850Z,72.40
2023-01-17T07:34:48.704Z,72.32
2023-01-17T07:37:15.665Z,72.37
2023-01-17T07:39:42.681Z,72.28
2023-01-17T07:42:09.627Z,72.19
2023-01-17T07:44:36.581Z,72.16
2023-01-17T07:47:04.479Z,72.15
2023-01-17T07:49:31.333Z,72.23
2023-01-17T07:51:58.313Z,72.27
2023-01-17T07:54:25.108Z,72.34
2023-01-17T07:56:51.971Z,72.18
2023-01-17T07:59:18.932Z,72.16
2023-01-17T08:01:45.889Z,72.07
2023-01-17T08:04:14.298Z,72.20
2023-01-17T08:06:42.915Z,72.24
2023-01-17T08:09:09.899Z,72.29
2023-01-17T08:11:36.689Z,72.32
2023-01-17T08:14:03.688Z,72.45
2023-01-17T08:16:30.657Z,72.43
2023-01-17T08:18:57.629Z,72.34
2023-01-17T08:21:24.488Z,72.33
2023-01-17T08:23:51.551Z,72.39
2023-01-17T08:26:22.605Z,72.47
2023-01-17T08:28:56.989Z,72.53
2023-01-17T08:31:24.302Z,72.47
2023-01-17T08:33:51.190Z,72.44
2023-01-17T08:36:18.301Z,72.33
2023-01-17T08:38:45.123Z,72.31
2023-01-17T08:41:13.147Z,72.47
2023-01-17T08:43:40.549Z,72.47
2023-01-17T08:46:07.499Z,72.61
2023-01-17T08:48:34.412Z,72.74
2023-01-17T08:51:02.242Z,72.77
2023-01-17T08:53:29.276Z,72.62
2023-01-17T08:56:00.544Z,72.57
2023-01-17T08:58:30.267Z,72.53
2023-01-17T09:01:05.213Z,72.64
2023-01-17T09:03:32.414Z,72.63
2023-01-17T09:06:12.362Z,72.44
2023-01-17T09:08:39.403Z,72.41
2023-01-17T09:11:11.163Z,72.28
2023-01-17T09:13:38.401Z,72.02
2023-01-17T09:16:05.665Z,71.93
2023-01-17T09:18:33.527Z,71.92
2023-01-17T09:21:00.682Z,72.00
2023-01-17T09:23:28.442Z,72.09
2023-01-17T09:25:59.116Z,72.01
2023-01-17T09:28:26.599Z,71.88
2023-01-17T09:30:53.862Z,71.68
2023-01-17T09:33:20.764Z,71.52
2023-01-17T09:35:47.681Z,71.72
2023-01-17T09:38:14.624Z,72.04
2023-01-17T09:40:46.102Z,71.96
2023-01-17T09:43:29.164Z,71.74
2023-01-17T09:45:56.020Z,71.65
2023-01-17T09:48:32.385Z,71.43
2023-01-17T09:51:12.666Z,71.17
2023-01-17T09:53:40.329Z,71.22
2023-01-17T09:56:16.158Z,71.36
2023-01-17T09:58:55.170Z,71.42
2023-01-17T10:01:44.155Z,71.44
2023-01-17T10:04:36.330Z,71.43
2023-01-17T10:07:14.740Z,71.44
2023-01-17T10:09:53.875Z,71.46
2023-01-17T10:12:56.028Z,71.56
2023-01-17T10:15:41.723Z,71.59
2023-01-17T10:18:30.410Z,71.63
2023-01-17T10:21:00.641Z,71.74
2023-01-17T10:24:01.434Z,71.64
2023-01-17T10:26:28.271Z,71.94
2023-01-17T10:29:05.460Z,72.01
2023-01-17T10:31:36.090Z,72.02
2023-01-17T10:34:21.800Z,71.90
2023-01-17T10:36:54.175Z,71.80
2023-01-17T10:39:25.252Z,71.87
2023-01-17T10:42:02.568Z,71.92
2023-01-17T10:44:35.560Z,72.11
2023-01-17T10:47:07.323Z,72.29
2023-01-17T10:49:34.155Z,72.29
2023-01-17T10:52:10.566Z,72.17
2023-01-17T10:55:05.777Z,72.36
2023-01-17T10:57:42.015Z,72.37
2023-01-17T11:00:27.988Z,72.32
2023-01-17T11:02:54.951Z,72.10
2023-01-17T11:05:25.093Z,72.04
2023-01-17T11:08:05.584Z,72.14
2023-01-17T11:10:43.760Z,72.16
2023-01-17T11:13:23.386Z,72.16
2023-01-17T11:15:53.301Z,72.13
2023-01-17T11:18:21.574Z,72.28
2023-01-17T11:20:48.596Z,72.33
2023-01-17T11:23:21.016Z,72.21
2023-01-17T11:26:10.467Z,72.29
2023-01-17T11:28:38.558Z,72.22
2023-01-17T11:31:08.045Z,72.13
2023-01-17T11:33:49.410Z,72.01
2023-01-17T11:36:16.258Z,72.07
2023-01-17T11:38:57.891Z,71.96
2023-01-17T11:41:25.340Z,71.86
2023-01-17T11:43:58.322Z,71.89
2023-01-17T11:46:25.445Z,71.91
2023-01-17T11:48:57.068Z,71.83
2023-01-17T11:51:34.244Z,71.81
2023-01-17T11:54:14.651Z,71.71
2023-01-17T11:56:45.181Z,71.81
2023-01-17T11:59:21.186Z,72.10
2023-01-17T12:01:47.938Z,72.21
2023-01-17T12:04:42.885Z,72.10
2023-01-17T12:07:19.303Z,71.84
2023-01-17T12:09:55.763Z,71.94
2023-01-17T12:12:47.535Z,72.14
2023-01-17T12:15:19.166Z,72.39
2023-01-17T12:17:50.581Z,72.36
2023-01-17T12:20:25.190Z,72.48
2023-01-17T12:23:01.261Z,72.42
2023-01-17T12:25:46.628Z,72.28
2023-01-17T12:28:31.975Z,72.18
2023-01-17T12:31:44.350Z,72.13
2023-01-17T12:34:33.578Z,72.39
2023-01-17T12:37:05.784Z,72.41
2023-01-17T12:39:38.697Z,72.65
2023-01-17T12:42:13.663Z,72.56
2023-01-17T12:45:16.183Z,72.53
2023-01-17T12:47:45.482Z,72.47
2023-01-17T12:50:23.937Z,72.63
2023-01-17T12:53:05.659Z,72.69
2023-01-17T12:55:37.483Z,72.59
2023-01-17T12:58:06.321Z,72.62
2023-01-17T13:00:33.395Z,72.50
2023-01-17T13:03:16.089Z,72.45
2023-01-17T13:05:45.989Z,72.47
2023-01-17T13:08:40.575Z,72.48
2023-01-17T13:11:17.352Z,72.73
2023-01-17T13:13:44.206Z,72.91
2023-01-17T13:16:31.993Z,72.88
2023-01-17T13:19:07.374Z,72.75
2023-01-17T13:21:34.624Z,72.69
2023-01-17T13:24:06.096Z,72.81
2023-01-17T13:26:49.200Z,73.00
2023-01-17T13:29:30.196Z,73.14
2023-01-17T13:32:31.748Z,73.23
2023-01-17T13:35:43.760Z,73.21
2023-01-17T13:38:35.906Z,73.22
2023-01-17T13:41:34.151Z,73.51
2023-01-17T13:44:19.945Z,73.77
2023-01-17T13:47:02.471Z,73.62
2023-01-17T13:49:29.322Z,73.54
2023-01-17T13:52:11.051Z,73.60
2023-01-17T13:54:46.124Z,73.69
2023-01-17T13:57:26.810Z,73.63
2023-01-17T13:59:56.705Z,73.49
2023-01-17T14:02:32.854Z,73.57
2023-01-17T14:05:12.418Z,73.57
2023-01-17T14:07:57.443Z,73.44
2023-01-17T14:10:39.466Z,73.67
2023-01-17T14:13:25.063Z,73.75
2023-01-17T14:15:51.935Z,73.55
2023-01-17T14:18:32.262Z,73.67
2023-01-17T14:21:07.893Z,73.68
2023-01-17T14:24:04.078Z,73.73
2023-01-17T14:26:52.194Z,73.95
2023-01-17T14:29:45.451Z,74.05
2023-01-17T14:32:14.581Z,74.14
2023-01-17T14:34:43.851Z,74.04
2023-01-17T14:37:18.162Z,73.93
2023-01-17T14:39:49.574Z,73.90
2023-01-17T14:42:22.297Z,73.91
2023-01-17T14:44:55.832Z,74.09
2023-01-17T14:47:22.626Z,74.00
2023-01-17T14:50:09.038Z,74.05
2023-01-17T14:52:35.985Z,73.94
2023-01-17T14:55:09.624Z,73.82
2023-01-17T14:57:36.783Z,73.77
2023-01-17T15:00:20.274Z,73.90
2023-01-17T15:02:49.142Z,73.98
2023-01-17T15:05:17.453Z,73.91
2023-01-17T15:07:45.975Z,73.80
2023-01-17T15:10:15.290Z,73.56
2023-01-17T15:25:48.585Z,72.95
2023-01-17T15:28:15.413Z,71.79
2023-01-17T15:31:03.669Z,71.70
2023-01-17T15:33:32.403Z,71.69
2023-01-17T15:36:10.071Z,71.59
2023-01-17T15:38:39.480Z,71.70
2023-01-17T15:41:11.795Z,71.76
2023-01-17T15:43:39.222Z,71.91
2023-01-17T15:46:06.296Z,72.03
2023-01-17T15:48:36.313Z,72.10
2023-01-17T15:51:03.225Z,72.07
2023-01-17T15:53:32.344Z,72.11
2023-01-17T15:55:59.786Z,72.14
2023-01-17T15:58:28.835Z,72.30
2023-01-17T16:00:55.852Z,72.42
2023-01-17T16:03:29.374Z,72.51
2023-01-17T16:05:57.969Z,72.48
2023-01-17T16:08:24.997Z,72.39
2023-01-17T16:10:58.181Z,72.31
2023-01-17T16:13:25.220Z,72.39
2023-01-17T16:15:52.082Z,72.51
2023-01-17T16:18:24.195Z,72.64
2023-01-17T16:21:00.153Z,72.70
2023-01-17T16:23:27.488Z,72.79
2023-01-17T16:25:54.302Z,72.67
2023-01-17T16:28:21.197Z,72.54
2023-01-17T16:30:49.013Z,72.38
2023-01-17T16:33:16.100Z,72.55
2023-01-17T16:35:43.235Z,72.55
2023-01-17T16:38:11.820Z,72.56
2023-01-17T16:40:40.441Z,72.54
2023-01-17T16:43:07.476Z,72.52
2023-01-17T16:45:45.961Z,72.44
2023-01-17T16:48:13.148Z,72.40
2023-01-17T16:50:48.490Z,72.47
2023-01-17T16:53:15.977Z,72.52
2023-01-17T16:55:43.413Z,72.58
2023-01-17T16:58:10.434Z,72.64
2023-01-17T17:00:37.394Z,72.50
2023-01-17T17:03:04.229Z,72.40
2023-01-17T17:05:33.644Z,72.33
2023-01-17T17:08:00.998Z,72.46
2023-01-17T17:10:28.043Z,72.50
2023-01-17T17:12:55.296Z,72.44
2023-01-17T17:15:22.141Z,72.57
2023-01-17T17:17:50.015Z,72.60
2023-01-17T17:20:17.778Z,72.40
2023-01-17T17:22:44.933Z,72.37
2023-01-17T17:25:12.278Z,72.50
2023-01-17T17:27:39.232Z,72.47
2023-01-17T17:30:06.785Z,72.45
2023-01-17T17:32:33.740Z,72.36
2023-01-17T17:35:00.786Z,72.11
2023-01-17T17:37:30.899Z,72.01
2023-01-17T17:39:57.811Z,72.01
2023-01-17T17:42:24.904Z,72.05
2023-01-17T17:44:52.045Z,71.98
2023-01-17T17:47:18.916Z,72.03
2023-01-17T17:49:45.828Z,72.04
2023-01-17T17:52:12.803Z,72.02
2023-01-17T17:54:39.724Z,71.92
2023-01-17T17:57:07.600Z,71.90
2023-01-17T17:59:34.646Z,71.81
2023-01-17T18:02:01.674Z,71.82
2023-01-17T18:04:28.790Z,71.94
2023-01-17T18:06:57.624Z,71.92
2023-01-17T18:09:24.591Z,71.74
2023-01-17T18:11:51.621Z,71.67
2023-01-17T18:14:21.189Z,71.54
2023-01-17T18:16:48.460Z,71.56
2023-01-17T18:19:23.254Z,71.65
2023-01-17T18:21:51.437Z,71.77
2023-01-17T18:24:22.943Z,71.88
2023-01-17T18:26:56.075Z,71.79
2023-01-17T18:29:23.206Z,71.80
2023-01-17T18:32:23.462Z,71.96
2023-01-17T18:34:51.568Z,71.76
2023-01-17T18:37:18.588Z,71.64
2023-01-17T18:39:45.635Z,71.60
2023-01-17T18:42:12.495Z,71.62
2023-01-17T18:44:39.417Z,71.53
2023-01-17T18:47:06.472Z,71.54
2023-01-17T18:49:33.922Z,71.57
2023-01-17T18:52:00.868Z,71.57
2023-01-17T18:54:28.428Z,71.63
2023-01-17T18:56:56.001Z,71.71
2023-01-17T18:59:23.679Z,71.78
2023-01-17T19:01:50.775Z,71.75
2023-01-17T19:04:18.099Z,71.74
2023-01-17T19:06:46.910Z,71.63
2023-01-17T19:09:14.605Z,71.73
2023-01-17T19:11:44.723Z,71.73
2023-01-17T19:14:12.286Z,71.61
2023-01-17T19:16:40.203Z,71.67
2023-01-17T19:19:09.356Z,71.57
2023-01-17T19:21:36.544Z,71.48
2023-01-17T19:24:03.751Z,71.43
2023-01-17T19:26:30.641Z,71.45
2023-01-17T19:28:58.952Z,71.47
2023-01-17T19:31:29.906Z,71.55
2023-01-17T19:33:58.081Z,71.44
2023-01-17T19:36:27.960Z,71.39
2023-01-17T19:39:04.527Z,71.40
2023-01-17T19:41:33.673Z,71.35
2023-01-17T19:44:02.283Z,71.37
2023-01-17T19:46:29.306Z,71.49
2023-01-17T19:48:59.691Z,71.36
2023-01-17T19:52:52.565Z,71.73
2023-01-17T19:56:24.369Z,71.50
2023-01-17T19:58:53.277Z,71.19
2023-01-17T20:01:25.301Z,71.22
2023-01-17T20:03:52.422Z,71.30
2023-01-17T20:06:20.881Z,71.23
2023-01-17T20:08:47.779Z,71.29
2023-01-17T20:11:19.647Z,71.21
2023-01-17T20:13:47.613Z,71.00
2023-01-17T20:16:15.647Z,70.94
2023-01-17T20:18:43.036Z,70.92
2023-01-17T20:21:12.632Z,70.93
2023-01-17T20:23:42.356Z,70.90
2023-01-17T20:26:13.280Z,70.97
2023-01-17T20:28:41.091Z,71.05
2023-01-17T20:31:12.821Z,70.99
2023-01-17T20:33:43.915Z,70.97
2023-01-17T20:36:17.765Z,70.81
2023-01-17T20:38:45.115Z,70.90
2023-01-17T20:41:17.067Z,71.06
2023-01-17T20:43:45.059Z,71.16
2023-01-17T20:46:14.300Z,71.30
2023-01-17T20:48:48.856Z,71.34
2023-01-17T20:51:19.206Z,70.93
2023-01-17T20:53:46.870Z,70.91
2023-01-17T20:56:14.548Z,71.23
2023-01-17T20:58:41.955Z,71.54
2023-01-17T21:01:10.004Z,71.62
2023-01-17T21:03:37.818Z,71.68
2023-01-17T21:06:06.547Z,71.65
2023-01-17T21:08:35.060Z,71.62
2023-01-17T21:11:02.233Z,71.59
2023-01-17T21:13:29.193Z,71.64
2023-01-17T21:15:56.123Z,71.69
2023-01-17T21:18:23.842Z,71.61
2023-01-17T21:20:50.945Z,71.65
2023-01-17T21:23:18.206Z,71.71
2023-01-17T21:25:55.844Z,71.73
2023-01-17T21:28:23.956Z,71.58
2023-01-17T21:30:51.344Z,71.70
2023-01-17T21:33:18.669Z,71.91
2023-01-17T21:35:45.741Z,71.93
2023-01-17T21:38:13.995Z,71.90
2023-01-17T21:40:41.453Z,71.96
2023-01-17T21:43:08.336Z,71.87
2023-01-17T21:45:39.030Z,71.86
2023-01-17T21:48:12.283Z,71.91
2023-01-17T21:53:19.835Z,72.09
2023-01-17T22:08:01.951Z,71.08
2023-01-17T22:10:29.085Z,69.94
2023-01-17T22:12:56.242Z,69.88
2023-01-17T22:15:23.905Z,70.12
2023-01-17T22:17:50.635Z,70.11
2023-01-17T22:20:19.067Z,70.11
2023-01-17T22:22:50.776Z,70.37
2023-01-17T22:25:17.821Z,70.69
2023-01-17T22:27:44.978Z,70.74
2023-01-17T22:30:12.455Z,70.85
2023-01-17T22:32:39.489Z,71.00
2023-01-17T22:35:07.060Z,71.37
2023-01-17T22:37:36.447Z,71.47
2023-01-17T22:40:05.276Z,71.24
2023-01-17T22:42:33.759Z,71.17
2023-01-17T22:45:00.742Z,71.18
2023-01-17T22:47:28.014Z,70.94
2023-01-17T22:49:54.866Z,70.44
2023-01-17T22:52:21.855Z,69.93
2023-01-17T22:54:48.991Z,69.74
2023-01-17T22:57:16.524Z,69.76
2023-01-17T22:59:43.525Z,69.85
2023-01-17T23:02:10.300Z,69.91
2023-01-17T23:04:37.094Z,69.99
2023-01-17T23:07:04.089Z,70.02
2023-01-17T23:09:31.445Z,70.09
2023-01-17T23:11:58.185Z,70.09
2023-01-17T23:14:30.454Z,70.35
2023-01-17T23:17:20.857Z,70.80
2023-01-17T23:19:51.862Z,71.33
2023-01-17T23:22:26.314Z,71.64
2023-01-17T23:24:53.988Z,71.97
2023-01-17T23:27:47.778Z,72.11
2023-01-17T23:30:16.447Z,72.42
2023-01-17T23:32:54.521Z,72.77
2023-01-17T23:35:23.948Z,73.00
2023-01-17T23:38:10.146Z,73.12
2023-01-17T23:40:37.914Z,73.29
2023-01-17T23:43:23.304Z,73.64
2023-01-17T23:45:51.469Z,73.73
2023-01-17T23:48:18.642Z,73.65
2023-01-17T23:50:46.594Z,73.56
2023-01-17T23:53:25.611Z,73.60
2023-01-17T23:55:54.307Z,73.35
2023-01-17T23:58:23.086Z,73.27
